createdAt,value
2018-07-06T00:00:19.428Z,32.50
2018-07-06T00:01:50.906Z,34.00
2018-07-06T00:03:22.486Z,33.40
2018-07-06T00:04:54.042Z,33.00
2018-07-06T00:06:25.614Z,39.30
2018-07-06T00:07:57.191Z,41.80
2018-07-06T00:09:28.759Z,35.90
2018-07-06T00:11:00.398Z,37.00
2018-07-06T00:12:32.102Z,35.60
2018-07-06T00:14:03.477Z,33.60
2018-07-06T00:15:35.049Z,41.60
2018-07-06T00:17:06.621Z,39.60
2018-07-06T00:18:38.393Z,36.90
2018-07-06T00:20:09.766Z,35.10
2018-07-06T00:21:41.338Z,40.20
2018-07-06T00:23:12.910Z,37.00
2018-07-06T00:24:44.483Z,35.70
2018-07-06T00:26:16.055Z,38.80
2018-07-06T00:27:47.626Z,37.30
2018-07-06T00:29:19.199Z,37.90
2018-07-06T00:30:50.771Z,39.70
2018-07-06T00:32:22.343Z,41.00
2018-07-06T00:33:53.916Z,38.50
2018-07-06T00:35:25.488Z,41.70
2018-07-06T00:36:57.161Z,46.40
2018-07-06T00:38:28.633Z,47.00
2018-07-06T00:40:00.205Z,37.60
2018-07-06T00:41:31.777Z,39.70
2018-07-06T00:43:03.349Z,45.80
2018-07-06T00:44:34.921Z,43.80
2018-07-06T00:46:06.494Z,48.70
2018-07-06T00:47:38.065Z,54.10
2018-07-06T00:49:09.638Z,48.60
2018-07-06T00:50:41.210Z,54.20
2018-07-06T00:52:12.782Z,47.50
2018-07-06T00:53:44.355Z,44.90
2018-07-06T00:55:16.026Z,49.10
2018-07-06T00:56:47.502Z,48.60
2018-07-06T00:58:19.071Z,52.10
2018-07-06T00:59:50.643Z,45.60
2018-07-06T01:01:22.215Z,57.60
2018-07-06T01:02:53.787Z,48.10
2018-07-06T01:04:25.359Z,50.80
2018-07-06T01:05:56.931Z,45.20
2018-07-06T01:07:28.503Z,47.70
2018-07-06T01:09:00.075Z,54.10
2018-07-06T01:10:31.647Z,49.20
2018-07-06T01:12:03.219Z,53.60
2018-07-06T01:13:35.141Z,47.80
2018-07-06T01:15:06.363Z,52.40
2018-07-06T01:16:37.934Z,53.60
2018-07-06T01:18:09.507Z,48.20
2018-07-06T01:19:41.081Z,51.20
2018-07-06T01:21:12.652Z,52.10
2018-07-06T01:22:44.222Z,53.80
2018-07-06T01:24:15.793Z,59.20
2018-07-06T01:25:47.368Z,55.40
2018-07-06T01:27:18.937Z,52.00
2018-07-06T01:28:50.509Z,51.90
2018-07-06T01:30:22.081Z,55.70
2018-07-06T01:31:53.753Z,54.20
2018-07-06T01:33:25.227Z,51.60
2018-07-06T01:34:56.801Z,56.90
2018-07-06T01:36:28.367Z,53.20
2018-07-06T01:37:59.941Z,54.90
2018-07-06T01:39:31.510Z,57.30
2018-07-06T01:41:03.082Z,56.50
2018-07-06T01:42:34.654Z,56.40
2018-07-06T01:44:06.225Z,57.00
2018-07-06T01:45:37.796Z,54.70
2018-07-06T01:47:09.368Z,55.10
2018-07-06T01:48:40.941Z,60.80
2018-07-06T01:50:12.831Z,56.50
2018-07-06T01:51:44.083Z,55.10
2018-07-06T01:53:15.654Z,52.60
2018-07-06T01:54:47.226Z,64.50
2018-07-06T01:56:18.797Z,62.40
2018-07-06T01:57:50.369Z,63.60
2018-07-06T01:59:21.941Z,59.40
2018-07-06T02:00:53.511Z,60.60
2018-07-06T02:02:25.084Z,61.10
2018-07-06T02:03:56.655Z,64.80
2018-07-06T02:05:28.226Z,63.60
2018-07-06T02:06:59.797Z,67.50
2018-07-06T02:08:31.468Z,74.00
2018-07-06T02:10:02.940Z,70.90
2018-07-06T02:11:34.511Z,63.90
2018-07-06T02:13:06.082Z,57.60
2018-07-06T02:14:37.760Z,60.60
2018-07-06T02:16:09.225Z,60.80
2018-07-06T02:17:40.796Z,64.40
2018-07-06T02:19:12.368Z,71.00
2018-07-06T02:20:44.039Z,73.20
2018-07-06T02:22:15.511Z,68.80
2018-07-06T02:23:47.081Z,66.90
2018-07-06T02:25:18.653Z,66.30
2018-07-06T02:26:50.524Z,63.50
2018-07-06T02:28:21.794Z,70.50
2018-07-06T02:29:53.366Z,68.00
2018-07-06T02:31:24.947Z,68.00
2018-07-06T02:32:56.510Z,75.00
2018-07-06T02:34:28.082Z,81.20
2018-07-06T02:35:59.651Z,67.70
2018-07-06T02:37:31.223Z,70.70
2018-07-06T02:39:02.801Z,81.00
2018-07-06T02:40:34.365Z,78.80
2018-07-06T02:42:05.936Z,81.50
2018-07-06T02:43:37.506Z,86.80
2018-07-06T02:45:09.431Z,82.10
2018-07-06T02:46:40.656Z,72.50
2018-07-06T02:48:12.220Z,75.60
2018-07-06T02:49:43.791Z,75.40
2018-07-06T02:51:15.463Z,75.40
2018-07-06T02:52:46.932Z,77.70
2018-07-06T02:54:18.507Z,72.00
2018-07-06T02:55:50.075Z,82.20
2018-07-06T02:57:21.796Z,89.40
2018-07-06T02:58:53.216Z,89.90
2018-07-06T03:00:24.791Z,79.10
2018-07-06T03:01:56.359Z,73.20
2018-07-06T03:03:28.033Z,69.90
2018-07-06T03:04:59.511Z,77.10
2018-07-06T03:06:31.071Z,78.40
2018-07-06T03:08:02.643Z,80.00
2018-07-06T03:09:34.214Z,79.40
2018-07-06T03:11:05.789Z,74.60
2018-07-06T03:12:37.354Z,75.80
2018-07-06T03:14:08.925Z,75.70
2018-07-06T03:15:40.747Z,90.80
2018-07-06T03:17:12.068Z,83.20
2018-07-06T03:18:43.638Z,92.00
2018-07-06T03:20:15.209Z,90.00
2018-07-06T03:21:47.030Z,92.50
2018-07-06T03:23:18.350Z,86.40
2018-07-06T03:24:49.923Z,77.00
2018-07-06T03:26:21.492Z,85.80
2018-07-06T03:27:53.225Z,80.90
2018-07-06T03:29:24.633Z,93.90
2018-07-06T03:30:56.205Z,93.40
2018-07-06T03:32:27.775Z,79.50
2018-07-06T03:33:59.345Z,82.30
2018-07-06T03:35:30.916Z,75.90
2018-07-06T03:37:02.487Z,69.60
2018-07-06T03:38:34.058Z,71.70
2018-07-06T03:40:05.728Z,62.90
2018-07-06T03:41:37.199Z,72.40
2018-07-06T03:43:08.770Z,69.50
2018-07-06T03:44:40.342Z,81.00
2018-07-06T03:46:11.912Z,83.20
2018-07-06T03:47:43.483Z,75.20
2018-07-06T03:49:15.054Z,81.90
2018-07-06T03:50:46.625Z,79.70
2018-07-06T03:52:18.298Z,85.70
2018-07-06T03:53:49.768Z,77.70
2018-07-06T03:56:52.908Z,91.50
2018-07-06T03:58:24.780Z,83.40
2018-07-06T03:59:56.052Z,84.60
2018-07-06T04:01:27.625Z,64.20
2018-07-06T04:02:59.193Z,67.20
2018-07-06T04:04:30.763Z,71.30
2018-07-06T04:06:02.335Z,75.30
2018-07-06T04:07:33.906Z,88.10
2018-07-06T04:09:05.479Z,88.90
2018-07-06T04:10:37.048Z,102.30
2018-07-06T04:12:08.618Z,92.80
2018-07-06T04:13:40.189Z,88.80
2018-07-06T04:15:11.762Z,84.70
2018-07-06T04:16:43.700Z,87.00
2018-07-06T04:18:14.901Z,78.00
2018-07-06T04:19:46.472Z,84.50
2018-07-06T04:21:18.044Z,76.70
2018-07-06T04:22:49.763Z,64.10
2018-07-06T04:24:21.184Z,75.20
2018-07-06T04:25:52.769Z,92.40
2018-07-06T04:27:24.329Z,76.60
2018-07-06T04:28:55.900Z,79.30
2018-07-06T04:30:27.467Z,74.20
2018-07-06T04:31:59.038Z,87.90
2018-07-06T04:33:30.625Z,104.60
2018-07-06T04:35:02.280Z,115.30
2018-07-06T04:36:33.752Z,123.20
2018-07-06T04:38:05.321Z,79.20
2018-07-06T04:39:36.892Z,86.10
2018-07-06T04:41:08.464Z,70.40
2018-07-06T04:42:40.035Z,72.00
2018-07-06T04:44:11.621Z,97.40
2018-07-06T04:45:43.176Z,119.60
2018-07-06T04:47:14.997Z,152.40
2018-07-06T04:48:46.317Z,134.00
2018-07-06T04:50:17.892Z,125.20
2018-07-06T04:51:49.459Z,107.90
2018-07-06T04:53:21.130Z,76.60
2018-07-06T04:54:52.601Z,106.40
2018-07-06T04:56:24.172Z,100.90
2018-07-06T04:57:55.743Z,94.00
2018-07-06T04:59:27.313Z,91.00
2018-07-06T05:00:58.884Z,79.10
2018-07-06T05:02:30.459Z,86.40
2018-07-06T05:04:02.029Z,85.70
2018-07-06T05:05:33.596Z,88.40
2018-07-06T05:07:05.167Z,85.50
2018-07-06T05:08:36.838Z,91.80
2018-07-06T05:10:08.308Z,90.10
2018-07-06T05:11:39.980Z,89.80
2018-07-06T05:13:11.449Z,92.40
2018-07-06T05:14:43.020Z,86.70
2018-07-06T05:16:14.592Z,88.70
2018-07-06T05:17:46.416Z,94.10
2018-07-06T05:19:17.732Z,85.90
2018-07-06T05:20:49.303Z,89.20
2018-07-06T05:22:20.874Z,89.10
2018-07-06T05:23:52.545Z,95.40
2018-07-06T05:25:24.015Z,86.30
2018-07-06T05:26:55.585Z,87.20
2018-07-06T05:28:27.157Z,90.00
2018-07-06T05:29:58.977Z,94.60
2018-07-06T05:31:30.298Z,96.70
2018-07-06T05:33:01.869Z,87.50
2018-07-06T05:34:33.440Z,92.60
2018-07-06T05:36:05.011Z,97.70
2018-07-06T05:37:36.581Z,99.90
2018-07-06T05:39:08.153Z,95.40
2018-07-06T05:40:39.723Z,93.10
2018-07-06T05:42:11.295Z,93.70
2018-07-06T05:43:42.865Z,98.50
2018-07-06T05:45:14.437Z,96.10
2018-07-06T05:46:46.007Z,95.90
2018-07-06T05:48:17.929Z,102.30
2018-07-06T05:49:49.149Z,101.40
2018-07-06T05:51:20.720Z,102.70
2018-07-06T05:52:52.291Z,103.40
2018-07-06T05:54:24.014Z,97.70
2018-07-06T05:55:55.432Z,107.80
2018-07-06T05:57:27.004Z,111.70
2018-07-06T05:58:58.574Z,100.60
2018-07-06T06:00:30.147Z,110.40
2018-07-06T06:02:01.717Z,109.20
2018-07-06T06:03:33.288Z,117.90
2018-07-06T06:05:04.859Z,111.30
2018-07-06T06:06:36.530Z,109.10
2018-07-06T06:08:08.000Z,101.00
2018-07-06T06:09:39.574Z,90.50
2018-07-06T06:11:11.143Z,87.20
2018-07-06T06:12:42.713Z,91.80
2018-07-06T06:14:14.285Z,92.40
2018-07-06T06:15:45.856Z,90.00
2018-07-06T06:17:17.426Z,96.90
2018-07-06T06:18:49.200Z,101.50
2018-07-06T06:20:20.568Z,104.60
2018-07-06T06:21:52.139Z,118.50
2018-07-06T06:23:23.710Z,130.00
2018-07-06T06:24:55.635Z,121.30
2018-07-06T06:26:26.852Z,104.70
2018-07-06T06:27:58.422Z,104.00
2018-07-06T06:29:30.005Z,113.20
2018-07-06T06:31:01.565Z,170.80
2018-07-06T06:32:33.135Z,154.20
2018-07-06T06:34:04.707Z,183.60
2018-07-06T06:35:36.277Z,153.70
2018-07-06T06:37:07.847Z,151.30
2018-07-06T06:38:39.417Z,190.40
2018-07-06T06:40:10.990Z,199.80
2018-07-06T06:41:42.561Z,236.80
2018-07-06T06:43:14.631Z,244.70
2018-07-06T06:44:45.792Z,245.00
2018-07-06T06:46:17.271Z,240.30
2018-07-06T06:47:48.842Z,253.60
2018-07-06T06:49:20.667Z,282.70
2018-07-06T06:50:51.984Z,198.60
2018-07-06T06:52:23.557Z,247.70
2018-07-06T06:53:55.125Z,153.80
2018-07-06T06:55:26.849Z,144.10
2018-07-06T06:56:58.267Z,133.00
2018-07-06T06:58:29.837Z,132.90
2018-07-06T07:00:01.408Z,307.60
2018-07-06T07:01:33.129Z,277.60
2018-07-06T07:03:04.551Z,313.30
2018-07-06T07:04:36.120Z,283.00
2018-07-06T07:06:07.695Z,277.20
2018-07-06T07:07:39.264Z,239.30
2018-07-06T07:09:10.831Z,153.00
2018-07-06T07:10:42.403Z,115.40
2018-07-06T07:12:13.973Z,100.80
2018-07-06T07:13:45.706Z,132.30
2018-07-06T07:15:17.117Z,110.00
2018-07-06T07:16:48.685Z,156.10
2018-07-06T07:18:20.256Z,235.80
2018-07-06T07:19:52.178Z,201.20
2018-07-06T07:21:23.398Z,113.80
2018-07-06T07:22:54.971Z,92.20
2018-07-06T07:24:26.541Z,70.90
2018-07-06T07:25:58.214Z,74.50
2018-07-06T07:27:29.682Z,143.80
2018-07-06T07:29:01.252Z,143.90
2018-07-06T07:30:32.823Z,136.70
2018-07-06T07:32:04.556Z,164.00
2018-07-06T07:33:35.965Z,195.30
2018-07-06T07:35:07.536Z,162.80
2018-07-06T07:36:39.106Z,111.00
2018-07-06T07:38:10.777Z,102.30
2018-07-06T07:39:42.248Z,73.10
2018-07-06T07:41:13.819Z,67.00
2018-07-06T07:42:45.389Z,59.10
2018-07-06T07:44:17.110Z,53.80
2018-07-06T07:45:48.531Z,59.50
2018-07-06T07:47:20.101Z,115.20
2018-07-06T07:48:51.672Z,92.10
2018-07-06T07:50:23.493Z,85.50
2018-07-06T07:51:54.814Z,103.70
2018-07-06T07:53:26.388Z,78.80
2018-07-06T07:54:57.965Z,70.70
2018-07-06T07:56:29.726Z,61.00
2018-07-06T07:58:01.154Z,57.60
2018-07-06T07:59:32.724Z,60.00
2018-07-06T08:01:04.397Z,59.70
2018-07-06T08:02:35.960Z,69.60
2018-07-06T08:04:07.381Z,61.10
2018-07-06T08:05:38.951Z,55.80
2018-07-06T08:07:10.522Z,52.80
2018-07-06T08:08:42.093Z,52.40
2018-07-06T08:10:13.665Z,55.40
2018-07-06T08:11:45.272Z,53.50
2018-07-06T08:13:16.806Z,56.40
2018-07-06T08:14:48.678Z,56.90
2018-07-06T08:16:19.948Z,63.10
2018-07-06T08:17:51.519Z,57.20
2018-07-06T08:19:23.094Z,64.20
2018-07-06T08:20:54.913Z,74.50
2018-07-06T08:22:26.232Z,60.90
2018-07-06T08:23:57.804Z,60.40
2018-07-06T08:25:29.379Z,64.10
2018-07-06T08:27:01.047Z,57.70
2018-07-06T08:28:32.517Z,61.60
2018-07-06T08:30:04.088Z,52.70
2018-07-06T08:31:35.717Z,58.40
2018-07-06T08:33:07.530Z,65.50
2018-07-06T08:34:38.802Z,59.40
2018-07-06T08:36:10.371Z,63.00
2018-07-06T08:37:41.947Z,79.20
2018-07-06T08:39:13.613Z,83.70
2018-07-06T08:40:45.084Z,91.80
2018-07-06T08:42:16.654Z,114.20
2018-07-06T08:43:48.226Z,117.30
2018-07-06T08:45:19.899Z,94.60
2018-07-06T08:46:51.366Z,105.00
2018-07-06T08:48:22.936Z,87.20
2018-07-06T08:49:54.507Z,100.20
2018-07-06T08:51:26.178Z,114.40
2018-07-06T08:52:57.648Z,120.00
2018-07-06T08:54:29.218Z,144.60
2018-07-06T08:56:00.788Z,146.00
2018-07-06T08:57:32.525Z,153.70
2018-07-06T08:59:03.927Z,162.70
2018-07-06T09:00:35.498Z,160.30
2018-07-06T09:02:07.072Z,156.80
2018-07-06T09:03:38.637Z,156.90
2018-07-06T09:05:10.207Z,135.60
2018-07-06T09:06:41.777Z,166.40
2018-07-06T09:08:13.346Z,148.60
2018-07-06T09:09:45.025Z,158.90
2018-07-06T09:11:16.486Z,153.00
2018-07-06T09:12:48.055Z,149.20
2018-07-06T09:14:19.624Z,133.90
2018-07-06T09:15:51.295Z,155.40
2018-07-06T09:17:22.765Z,155.40
2018-07-06T09:18:54.334Z,125.60
2018-07-06T09:20:25.904Z,167.70
2018-07-06T09:21:57.724Z,168.60
2018-07-06T09:23:29.043Z,138.80
2018-07-06T09:25:00.612Z,111.90
2018-07-06T09:26:32.182Z,109.80
2018-07-06T09:28:04.051Z,104.90
2018-07-06T09:29:35.320Z,112.50
2018-07-06T09:31:06.890Z,102.00
2018-07-06T09:32:38.460Z,117.50
2018-07-06T09:34:10.030Z,123.60
2018-07-06T09:35:41.598Z,132.00
2018-07-06T09:37:13.169Z,103.00
2018-07-06T09:38:44.740Z,120.10
2018-07-06T09:40:16.308Z,118.70
2018-07-06T09:41:47.879Z,107.70
2018-07-06T09:43:19.464Z,139.10
2018-07-06T09:44:51.017Z,112.20
2018-07-06T09:46:22.788Z,88.60
2018-07-06T09:47:54.157Z,93.70
2018-07-06T09:49:25.731Z,105.80
2018-07-06T09:50:57.307Z,95.80
2018-07-06T09:52:29.121Z,117.30
2018-07-06T09:54:00.436Z,113.00
2018-07-06T09:55:32.006Z,95.80
2018-07-06T09:57:03.581Z,79.70
2018-07-06T09:58:35.145Z,88.30
2018-07-06T10:00:06.717Z,98.30
2018-07-06T10:01:38.286Z,105.20
2018-07-06T10:03:09.856Z,89.90
2018-07-06T10:04:41.528Z,95.80
2018-07-06T10:06:12.997Z,91.80
2018-07-06T10:07:44.569Z,75.80
2018-07-06T10:09:16.139Z,86.20
2018-07-06T10:10:47.712Z,66.00
2018-07-06T10:12:19.279Z,76.80
2018-07-06T10:13:50.849Z,68.50
2018-07-06T10:15:22.420Z,75.30
2018-07-06T10:16:54.294Z,82.70
2018-07-06T10:18:25.562Z,90.30
2018-07-06T10:19:57.133Z,79.20
2018-07-06T10:21:28.703Z,86.40
2018-07-06T10:23:00.374Z,74.70
2018-07-06T10:24:31.844Z,84.20
2018-07-06T10:26:03.417Z,92.50
2018-07-06T10:27:34.987Z,72.90
2018-07-06T10:29:06.558Z,73.00
2018-07-06T10:30:38.140Z,74.50
2018-07-06T10:32:09.701Z,92.20
2018-07-06T10:33:41.295Z,82.80
2018-07-06T10:35:12.843Z,90.80
2018-07-06T10:36:44.947Z,68.80
2018-07-06T10:38:15.988Z,89.70
2018-07-06T10:39:47.692Z,85.50
2018-07-06T10:41:19.230Z,90.80
2018-07-06T10:42:50.702Z,84.30
2018-07-06T10:44:22.310Z,87.00
2018-07-06T10:45:53.850Z,95.90
2018-07-06T10:47:25.424Z,84.50
2018-07-06T10:48:56.991Z,85.00
2018-07-06T10:50:28.766Z,83.90
2018-07-06T10:52:00.138Z,69.30
2018-07-06T10:53:31.833Z,56.30
2018-07-06T10:55:03.283Z,76.20
2018-07-06T10:56:35.462Z,78.70
2018-07-06T10:58:06.428Z,79.70
2018-07-06T10:59:38.308Z,79.00
2018-07-06T11:01:09.577Z,69.10
2018-07-06T11:02:41.149Z,64.00
2018-07-06T11:04:12.723Z,68.40
2018-07-06T11:05:44.296Z,65.60
2018-07-06T11:07:15.871Z,57.10
2018-07-06T11:08:47.444Z,63.20
2018-07-06T11:10:19.020Z,62.90
2018-07-06T11:13:22.369Z,71.70
2018-07-06T11:14:53.741Z,72.20
2018-07-06T11:16:25.315Z,61.40
2018-07-06T11:17:56.892Z,65.60
2018-07-06T11:19:29.197Z,60.70
2018-07-06T11:21:00.044Z,62.30
2018-07-06T11:22:31.615Z,57.70
2018-07-06T11:24:03.364Z,58.30
2018-07-06T11:25:34.914Z,53.50
2018-07-06T11:27:06.341Z,61.90
2018-07-06T11:28:38.115Z,56.50
2018-07-06T11:30:09.487Z,56.80
2018-07-06T11:31:41.063Z,59.10
2018-07-06T11:33:12.638Z,57.80
2018-07-06T11:34:44.211Z,57.20
2018-07-06T11:36:15.787Z,60.20
2018-07-06T11:37:47.525Z,63.00
2018-07-06T11:39:19.240Z,60.40
2018-07-06T11:40:50.512Z,57.50
2018-07-06T11:42:22.089Z,54.90
2018-07-06T11:43:53.764Z,53.50
2018-07-06T11:46:56.815Z,53.30
2018-07-06T11:48:28.389Z,48.40
2018-07-06T11:49:59.965Z,49.90
2018-07-06T11:51:31.543Z,53.70
2018-07-06T11:53:03.125Z,54.20
2018-07-06T11:54:34.694Z,50.00
2018-07-06T11:56:06.481Z,51.10
2018-07-06T11:57:37.848Z,56.50
2018-07-06T11:59:09.432Z,53.70
2018-07-06T12:00:41.002Z,49.50
2018-07-06T12:02:12.579Z,50.30
2018-07-06T12:03:44.169Z,51.20
2018-07-06T12:05:16.038Z,53.30
2018-07-06T12:06:47.927Z,54.50
2018-07-06T12:08:19.826Z,54.20
2018-07-06T12:09:50.466Z,52.20
2018-07-06T12:11:22.051Z,53.30
2018-07-06T12:12:53.925Z,52.10
2018-07-06T12:15:56.877Z,44.60
2018-07-06T12:17:28.355Z,50.40
2018-07-06T12:18:59.935Z,46.90
2018-07-06T12:20:32.425Z,48.00
2018-07-06T12:22:03.093Z,50.80
2018-07-06T12:23:34.669Z,50.10
2018-07-06T12:25:06.248Z,55.90
2018-07-06T12:26:38.334Z,52.20
2018-07-06T12:28:09.413Z,48.90
2018-07-06T12:29:41.597Z,51.90
2018-07-06T12:31:12.572Z,56.90
2018-07-06T12:34:15.829Z,59.60
2018-07-06T12:35:47.312Z,52.50
2018-07-06T12:37:20.031Z,56.70
2018-07-06T12:38:50.492Z,58.90
2018-07-06T12:40:22.059Z,54.70
2018-07-06T12:41:53.634Z,52.50
2018-07-06T12:43:25.212Z,57.90
2018-07-06T12:44:56.791Z,57.60
2018-07-06T12:46:28.473Z,58.20
2018-07-06T12:47:59.953Z,64.80
2018-07-06T12:49:32.141Z,61.60
2018-07-06T12:51:03.422Z,54.90
2018-07-06T12:52:34.797Z,63.10
2018-07-06T12:58:41.103Z,57.20
2018-07-06T13:00:12.806Z,57.90
2018-07-06T13:01:44.182Z,68.40
2018-07-06T13:04:47.345Z,62.80
2018-07-06T13:07:50.507Z,65.30
2018-07-06T13:09:22.088Z,61.70
2018-07-06T13:10:54.574Z,56.60
2018-07-06T13:12:25.250Z,62.50
2018-07-06T13:13:57.033Z,58.60
2018-07-06T13:15:28.412Z,56.90
2018-07-06T13:17:00.094Z,58.70
2018-07-06T13:18:31.576Z,56.20
2018-07-06T13:20:03.688Z,56.60
2018-07-06T13:21:34.738Z,53.30
2018-07-06T13:23:06.324Z,54.80
2018-07-06T13:24:38.204Z,56.80
2018-07-06T13:27:41.369Z,56.50
2018-07-06T13:29:12.745Z,52.50
2018-07-06T13:30:44.232Z,50.80
2018-07-06T13:33:47.442Z,52.30
2018-07-06T13:35:19.508Z,57.90
2018-07-06T13:36:50.559Z,52.80
2018-07-06T13:38:22.250Z,48.40
2018-07-06T13:41:25.311Z,47.30
2018-07-06T13:42:56.893Z,44.40
2018-07-06T13:44:28.778Z,43.80
2018-07-06T13:46:00.058Z,46.80
2018-07-06T13:47:31.892Z,42.80
2018-07-06T13:49:03.228Z,43.30
2018-07-06T13:50:34.822Z,40.00
2018-07-06T13:52:06.392Z,39.90
2018-07-06T13:53:37.975Z,38.90
2018-07-06T13:55:09.862Z,49.80
2018-07-06T13:56:41.141Z,40.10
2018-07-06T13:59:44.408Z,40.00
2018-07-06T14:01:15.895Z,38.50
2018-07-06T14:04:19.056Z,37.40
2018-07-06T14:07:22.576Z,29.60
2018-07-06T14:11:56.979Z,29.50
2018-07-06T14:13:29.112Z,30.60
2018-07-06T14:16:32.258Z,35.60
2018-07-06T14:18:03.308Z,35.80
2018-07-06T14:19:35.078Z,34.60
2018-07-06T14:21:06.476Z,32.70
2018-07-06T14:22:38.296Z,34.10
2018-07-06T14:24:09.643Z,36.00
2018-07-06T14:25:41.663Z,37.70
2018-07-06T14:27:12.839Z,33.90
2018-07-06T14:28:44.397Z,34.10
2018-07-06T14:30:15.979Z,35.50
2018-07-06T14:31:47.814Z,38.80
2018-07-06T14:33:19.231Z,36.70
2018-07-06T14:34:50.743Z,40.00
2018-07-06T14:36:22.320Z,34.50
2018-07-06T14:37:54.007Z,37.00
2018-07-06T14:39:25.704Z,37.10
2018-07-06T14:40:57.398Z,41.40
2018-07-06T14:45:32.376Z,40.70
2018-07-06T14:48:35.199Z,42.20
2018-07-06T14:50:06.884Z,41.60
2018-07-06T14:51:38.164Z,39.90
2018-07-06T14:53:09.748Z,39.50
2018-07-06T14:54:41.342Z,37.30
2018-07-06T14:56:12.919Z,40.80
2018-07-06T14:57:44.754Z,38.10
2018-07-06T14:59:16.108Z,39.20
2018-07-06T15:00:47.674Z,37.10
2018-07-06T15:02:19.261Z,39.00
2018-07-06T15:03:50.945Z,38.60
2018-07-06T15:05:22.479Z,37.70
2018-07-06T15:06:54.250Z,38.00
2018-07-06T15:08:25.601Z,36.70
2018-07-06T15:09:57.289Z,24.80
2018-07-06T15:11:28.840Z,22.60
2018-07-06T15:13:00.369Z,24.50
2018-07-06T15:14:31.942Z,23.40
2018-07-06T15:17:35.212Z,31.10
2018-07-06T15:19:06.696Z,28.40
2018-07-06T15:20:38.285Z,26.20
2018-07-06T15:22:09.866Z,24.40
2018-07-06T15:26:44.823Z,19.10
2018-07-06T15:29:47.793Z,19.30
2018-07-06T15:31:19.930Z,16.20
2018-07-06T15:32:52.881Z,16.20
2018-07-06T15:34:22.551Z,15.20
2018-07-06T15:35:54.133Z,19.70
2018-07-06T15:37:25.718Z,14.50
2018-07-06T15:38:57.404Z,14.90
2018-07-06T15:40:28.888Z,15.50
2018-07-06T15:42:00.474Z,14.10
2018-07-06T15:43:32.062Z,14.40
2018-07-06T15:45:03.946Z,14.60
2018-07-06T15:46:35.230Z,13.00
2018-07-06T15:48:06.820Z,11.40
2018-07-06T15:49:38.462Z,11.70
2018-07-06T15:51:10.106Z,12.00
2018-07-06T15:52:41.574Z,11.80
2018-07-06T15:54:13.390Z,10.30
2018-07-06T15:55:44.741Z,11.80
2018-07-06T15:58:48.012Z,10.80
2018-07-06T16:00:19.497Z,10.60
2018-07-06T16:01:51.407Z,11.20
2018-07-06T16:03:22.769Z,12.20
2018-07-06T16:04:54.452Z,11.20
2018-07-06T16:06:25.831Z,9.70
2018-07-06T16:09:29.000Z,9.70
2018-07-06T16:12:32.366Z,9.90
2018-07-06T16:17:06.978Z,10.40
2018-07-06T16:18:38.568Z,10.40
2018-07-06T16:20:10.085Z,11.10
2018-07-06T16:21:42.191Z,9.90
2018-07-06T16:23:14.669Z,10.10
2018-07-06T16:24:45.950Z,10.20
2018-07-06T16:26:16.425Z,10.80
2018-07-06T16:29:19.591Z,9.90
2018-07-06T16:30:51.178Z,9.40
2018-07-06T16:32:22.760Z,10.50
2018-07-06T16:33:54.344Z,10.30
2018-07-06T16:35:25.930Z,10.10
2018-07-06T16:36:57.717Z,10.10
2018-07-06T16:38:29.405Z,9.90
2018-07-06T16:40:00.685Z,9.60
2018-07-06T16:41:32.303Z,9.10
2018-07-06T16:43:03.954Z,10.40
2018-07-06T16:46:07.024Z,8.30
2018-07-06T16:47:38.914Z,7.70
2018-07-06T16:49:10.372Z,6.50
2018-07-06T16:50:41.777Z,6.00
2018-07-06T16:52:13.400Z,6.80
2018-07-06T16:53:44.948Z,6.30
2018-07-06T16:55:17.411Z,6.20
2018-07-06T16:56:48.114Z,5.90
2018-07-06T16:58:19.905Z,5.40
2018-07-06T16:59:51.281Z,6.40
2018-07-06T17:01:23.116Z,5.60
2018-07-06T17:02:54.448Z,6.80
2018-07-06T17:04:26.065Z,8.00
2018-07-06T17:09:00.788Z,7.60
2018-07-06T17:10:32.369Z,7.80
2018-07-06T17:12:03.958Z,7.90
2018-07-06T17:13:35.568Z,7.70
2018-07-06T17:15:07.281Z,8.20
2018-07-06T17:18:10.803Z,8.30
2018-07-06T17:21:13.715Z,7.90
2018-07-06T17:22:45.199Z,8.20
2018-07-06T17:24:16.663Z,8.00
2018-07-06T17:25:48.216Z,9.20
2018-07-06T17:31:54.555Z,7.80
2018-07-06T17:34:57.922Z,10.00
2018-07-06T17:36:29.838Z,7.20
2018-07-06T17:38:00.963Z,7.50
2018-07-06T17:39:32.503Z,11.20
2018-07-06T17:41:04.157Z,7.60
2018-07-06T17:42:35.673Z,10.00
2018-07-06T17:44:07.223Z,8.70
2018-07-06T17:45:38.836Z,7.80
2018-07-06T17:47:10.902Z,7.80
2018-07-06T17:48:41.973Z,9.60
2018-07-06T17:50:13.690Z,7.90
2018-07-06T17:51:45.141Z,8.80
2018-07-06T17:54:48.309Z,9.60
2018-07-06T17:56:19.918Z,10.30
2018-07-06T17:59:23.465Z,7.90
2018-07-06T18:00:55.275Z,7.90
2018-07-06T18:02:26.466Z,8.30
2018-07-06T18:03:57.813Z,8.70
2018-07-06T18:05:29.600Z,8.80
2018-07-06T18:07:00.983Z,9.20
2018-07-06T18:08:32.566Z,9.30
2018-07-06T18:10:04.150Z,9.50
2018-07-06T18:11:35.962Z,8.30
2018-07-06T18:13:07.328Z,7.90
2018-07-06T18:14:38.904Z,8.50
2018-07-06T18:19:13.807Z,10.30
2018-07-06T18:20:45.241Z,9.30
2018-07-06T18:23:48.410Z,9.00
2018-07-06T18:25:19.994Z,8.70
2018-07-06T18:26:51.584Z,9.20
2018-07-06T18:28:23.195Z,8.90
2018-07-06T18:29:54.746Z,8.80
2018-07-06T18:31:26.330Z,8.80
2018-07-06T18:32:57.919Z,8.40
2018-07-06T18:36:01.084Z,8.40
2018-07-06T18:37:32.795Z,9.00
2018-07-06T18:39:04.279Z,9.30
2018-07-06T18:40:36.038Z,9.80
2018-07-06T18:43:39.000Z,8.90
2018-07-06T18:45:10.585Z,9.10
2018-07-06T18:46:42.243Z,15.20
2018-07-06T18:49:45.335Z,10.00
2018-07-06T18:51:16.917Z,11.70
2018-07-06T18:54:20.286Z,9.80
2018-07-06T18:55:51.766Z,10.90
2018-07-06T18:57:23.250Z,10.70
2018-07-06T18:58:54.831Z,10.00
2018-07-06T19:00:26.440Z,11.80
2018-07-06T19:01:57.997Z,10.50
2018-07-06T19:05:01.163Z,10.10
2018-07-06T19:06:32.745Z,10.00
2018-07-06T19:08:04.327Z,11.00
2018-07-06T19:09:36.213Z,10.40
2018-07-06T19:11:08.025Z,10.60
2018-07-06T19:12:39.109Z,11.50
2018-07-06T19:14:10.758Z,10.70
2018-07-06T19:15:42.239Z,11.30
2018-07-06T19:17:13.820Z,10.90
2018-07-06T19:18:45.406Z,12.30
2018-07-06T19:20:16.985Z,12.00
2018-07-06T19:21:48.566Z,11.70
2018-07-06T19:23:20.148Z,12.70
2018-07-06T19:24:51.729Z,11.90
2018-07-06T19:26:23.613Z,11.90
2018-07-06T19:27:54.893Z,11.60
2018-07-06T19:29:26.474Z,12.20
2018-07-06T19:30:58.118Z,13.80
2018-07-06T19:32:29.941Z,12.00
2018-07-06T19:34:01.222Z,12.80
2018-07-06T19:35:32.800Z,13.80
2018-07-06T19:37:04.380Z,11.50
2018-07-06T19:38:35.963Z,11.80
2018-07-06T19:40:07.549Z,12.80
2018-07-06T19:41:39.122Z,12.90
2018-07-06T19:43:10.702Z,12.50
2018-07-06T19:44:42.283Z,11.80
2018-07-06T19:46:13.865Z,11.70
2018-07-06T19:47:45.445Z,15.30
2018-07-06T19:49:17.025Z,12.00
2018-07-06T19:50:49.407Z,12.90
2018-07-06T19:52:20.187Z,12.60
2018-07-06T19:53:51.769Z,12.60
2018-07-06T19:55:26.000Z,14.80
2018-07-06T19:56:54.932Z,14.60
2018-07-06T19:58:26.597Z,12.30
2018-07-06T19:59:58.085Z,12.60
2018-07-06T20:01:29.674Z,12.00
2018-07-06T20:03:01.551Z,12.60
2018-07-06T20:04:32.825Z,12.10
2018-07-06T20:06:04.408Z,12.50
2018-07-06T20:07:35.983Z,12.20
2018-07-06T20:09:07.665Z,13.10
2018-07-06T20:10:39.139Z,17.20
2018-07-06T20:12:10.726Z,13.50
2018-07-06T20:13:42.297Z,12.10
2018-07-06T20:15:13.875Z,12.80
2018-07-06T20:18:17.086Z,13.10
2018-07-06T20:19:48.619Z,12.70
2018-07-06T20:21:20.289Z,12.50
2018-07-06T20:22:51.766Z,11.90
2018-07-06T20:24:23.548Z,13.10
2018-07-06T20:25:54.923Z,12.70
2018-07-06T20:27:26.600Z,11.60
2018-07-06T20:28:58.093Z,13.10
2018-07-06T20:30:29.661Z,13.10
2018-07-06T20:32:01.233Z,12.30
2018-07-06T20:33:32.810Z,15.80
2018-07-06T20:35:04.387Z,12.40
2018-07-06T20:36:36.039Z,12.50
2018-07-06T20:38:07.541Z,11.50
2018-07-06T20:39:39.119Z,12.20
2018-07-06T20:41:10.696Z,15.20
2018-07-06T20:42:42.279Z,14.10
2018-07-06T20:44:13.849Z,12.80
2018-07-06T20:45:45.525Z,12.80
2018-07-06T20:47:17.001Z,11.70
2018-07-06T20:48:48.578Z,13.30
2018-07-06T20:50:20.155Z,11.80
2018-07-06T20:51:51.830Z,12.70
2018-07-06T20:53:23.306Z,14.10
2018-07-06T20:54:54.882Z,13.50
2018-07-06T20:56:26.458Z,13.80